createdAt,value
2023-01-12T00:01:51.256Z,100864.53
2023-01-12T00:04:18.708Z,100844.88
2023-01-12T00:06:46.107Z,100841.66
2023-01-12T00:09:13.335Z,100846.38
2023-01-12T00:11:41.010Z,100843.13
2023-01-12T00:14:09.149Z,100837.16
2023-01-12T00:16:39.022Z,100842.22
2023-01-12T00:19:11.798Z,100847.13
2023-01-12T00:22:01.305Z,100836.28
2023-01-12T00:24:44.044Z,100833.66
2023-01-12T00:27:14.672Z,100852.53
2023-01-12T00:29:42.155Z,100830.03
2023-01-12T00:32:15.004Z,100831.59
2023-01-12T00:34:42.275Z,100826.47
2023-01-12T00:37:10.058Z,100842.66
2023-01-12T00:39:40.441Z,100828.53
2023-01-12T00:42:26.682Z,100819.50
2023-01-12T00:45:12.461Z,100814.97
2023-01-12T00:47:39.577Z,100811.88
2023-01-12T00:50:06.751Z,100811.16
2023-01-12T00:52:33.692Z,100814.91
2023-01-12T00:55:00.794Z,100811.38
2023-01-12T00:57:28.663Z,100814.78
2023-01-12T00:59:58.399Z,100815.84
2023-01-12T01:02:26.936Z,100825.34
2023-01-12T01:04:54.040Z,100811.47
2023-01-12T01:07:21.853Z,100817.13
2023-01-12T01:09:49.694Z,100811.78
2023-01-12T01:12:16.995Z,100819.16
2023-01-12T01:14:44.038Z,100813.44
2023-01-12T01:17:11.184Z,100816.38
2023-01-12T01:19:38.165Z,100818.72
2023-01-12T01:22:05.176Z,100819.16
2023-01-12T01:24:32.194Z,100810.63
2023-01-12T01:26:59.145Z,100817.91
2023-01-12T01:29:26.138Z,100818.75
2023-01-12T01:31:55.543Z,100807.91
2023-01-12T01:34:23.998Z,100800.09
2023-01-12T01:36:51.089Z,100794.56
2023-01-12T01:39:18.100Z,100797.84
2023-01-12T01:41:45.148Z,100801.47
2023-01-12T01:44:30.156Z,100801.00
2023-01-12T01:47:03.066Z,100789.66
2023-01-12T01:49:47.918Z,100792.69
2023-01-12T01:52:29.895Z,100780.50
2023-01-12T01:55:11.526Z,100781.41
2023-01-12T01:58:00.399Z,100773.56
2023-01-12T02:00:27.990Z,100772.63
2023-01-12T02:02:56.759Z,100787.78
2023-01-12T02:05:27.191Z,100780.59
2023-01-12T02:07:55.565Z,100772.88
2023-01-12T02:10:22.925Z,100771.66
2023-01-12T02:13:09.517Z,100765.34
2023-01-12T02:16:07.885Z,100759.34
2023-01-12T02:18:45.135Z,100749.88
2023-01-12T02:21:31.013Z,100755.84
2023-01-12T02:24:20.963Z,100752.84
2023-01-12T02:27:02.923Z,100765.34
2023-01-12T02:29:41.992Z,100759.50
2023-01-12T02:32:27.785Z,100759.69
2023-01-12T02:35:30.768Z,100752.19
2023-01-12T02:38:12.741Z,100754.81
2023-01-12T02:41:06.711Z,100751.03
2023-01-12T02:43:36.581Z,100739.78
2023-01-12T02:46:21.305Z,100748.50
2023-01-12T02:49:01.517Z,100752.72
2023-01-12T02:51:29.389Z,100744.88
2023-01-12T02:54:03.127Z,100749.16
2023-01-12T02:56:40.254Z,100744.44
2023-01-12T02:59:21.846Z,100752.94
2023-01-12T03:01:53.685Z,100751.44
2023-01-12T03:04:22.620Z,100750.91
2023-01-12T03:06:58.915Z,100752.06
2023-01-12T03:09:31.273Z,100741.66
2023-01-12T03:12:06.135Z,100738.53
2023-01-12T03:14:36.464Z,100741.66
2023-01-12T03:17:07.575Z,100744.19
2023-01-12T03:19:36.392Z,100748.53
2023-01-12T03:22:08.558Z,100752.41
2023-01-12T03:24:40.829Z,100752.47
2023-01-12T03:27:16.409Z,100753.09
2023-01-12T03:29:59.362Z,100760.34
2023-01-12T03:32:27.026Z,100761.44
2023-01-12T03:34:54.380Z,100761.88
2023-01-12T03:37:44.172Z,100761.13
2023-01-12T03:40:23.639Z,100767.38
2023-01-12T03:43:03.870Z,100753.88
2023-01-12T03:45:45.463Z,100754.63
2023-01-12T03:48:30.912Z,100755.72
2023-01-12T03:51:02.936Z,100736.31
2023-01-12T03:53:31.681Z,100728.72
2023-01-12T03:56:06.874Z,100733.34
2023-01-12T03:58:36.178Z,100719.81
2023-01-12T04:01:04.722Z,100726.72
2023-01-12T04:03:31.952Z,100714.22
2023-01-12T04:05:59.094Z,100729.34
2023-01-12T04:08:27.956Z,100723.00
2023-01-12T04:10:55.069Z,100711.78
2023-01-12T04:13:22.252Z,100714.72
2023-01-12T04:15:49.522Z,100699.94
2023-01-12T04:18:17.111Z,100706.72
2023-01-12T04:20:44.159Z,100705.25
2023-01-12T04:23:11.155Z,100711.34
2023-01-12T04:25:38.112Z,100705.06
2023-01-12T04:28:05.758Z,100708.69
2023-01-12T04:30:33.840Z,100710.16
2023-01-12T04:33:06.000Z,100717.38
2023-01-12T04:35:33.184Z,100702.03
2023-01-12T04:38:05.839Z,100711.63
2023-01-12T04:40:32.991Z,100719.34
2023-01-12T04:43:08.365Z,100722.16
2023-01-12T04:45:39.097Z,100721.94
2023-01-12T04:48:12.680Z,100724.84
2023-01-12T04:50:41.078Z,100721.91
2023-01-12T04:53:11.437Z,100711.69
2023-01-12T04:55:41.157Z,100712.38
2023-01-12T04:58:08.815Z,100696.47
2023-01-12T05:00:36.268Z,100704.81
2023-01-12T05:03:03.705Z,100704.41
2023-01-12T05:05:32.751Z,100701.84
2023-01-12T05:08:20.255Z,100704.84
2023-01-12T05:10:55.825Z,100706.41
2023-01-12T05:13:26.962Z,100704.00
2023-01-12T05:15:54.057Z,100703.66
2023-01-12T05:18:21.952Z,100711.94
2023-01-12T05:20:49.339Z,100699.41
2023-01-12T05:23:16.391Z,100703.09
2023-01-12T05:25:43.465Z,100704.31
2023-01-12T05:28:10.510Z,100706.56
2023-01-12T05:30:37.523Z,100700.78
2023-01-12T05:33:04.544Z,100710.31
2023-01-12T05:35:31.538Z,100705.28
2023-01-12T05:37:58.483Z,100711.59
2023-01-12T05:40:25.452Z,100713.25
2023-01-12T05:43:14.319Z,100708.63
2023-01-12T05:45:41.406Z,100701.94
2023-01-12T05:48:09.690Z,100720.56
2023-01-12T05:50:36.849Z,100712.84
2023-01-12T05:53:11.031Z,100715.19
2023-01-12T05:55:38.713Z,100713.03
2023-01-12T05:58:05.956Z,100712.22
2023-01-12T06:00:33.066Z,100724.81
2023-01-12T06:03:02.945Z,100696.28
2023-01-12T06:05:30.063Z,100698.81
2023-01-12T06:07:57.830Z,100706.75
2023-01-12T06:10:24.918Z,100702.81
2023-01-12T06:13:10.418Z,100703.81
2023-01-12T06:15:37.638Z,100702.34
2023-01-12T06:18:05.005Z,100701.00
2023-01-12T06:20:32.663Z,100706.31
2023-01-12T06:23:05.012Z,100708.31
2023-01-12T06:25:32.677Z,100696.31
2023-01-12T06:27:59.699Z,100689.50
2023-01-12T06:30:26.809Z,100701.50
2023-01-12T06:32:53.932Z,100694.97
2023-01-12T06:35:22.331Z,100696.81
2023-01-12T06:37:49.402Z,100689.84
2023-01-12T06:40:16.701Z,100695.44
2023-01-12T06:42:45.152Z,100702.28
2023-01-12T06:45:12.541Z,100706.00
2023-01-12T06:47:50.737Z,100698.53
2023-01-12T06:50:17.989Z,100702.66
2023-01-12T06:52:45.158Z,100705.47
2023-01-12T06:55:13.726Z,100693.31
2023-01-12T06:57:40.697Z,100695.00
2023-01-12T07:00:08.920Z,100697.28
2023-01-12T07:02:35.923Z,100698.09
2023-01-12T07:05:03.239Z,100699.03
2023-01-12T07:07:30.410Z,100703.19
2023-01-12T07:09:57.552Z,100703.25
2023-01-12T07:12:27.757Z,100686.13
2023-01-12T07:14:56.311Z,100690.03
2023-01-12T07:17:23.425Z,100698.75
2023-01-12T07:19:50.632Z,100688.28
2023-01-12T07:22:17.591Z,100676.13
2023-01-12T07:24:44.685Z,100672.91
2023-01-12T07:27:11.729Z,100671.84
2023-01-12T07:29:39.629Z,100667.44
2023-01-12T07:32:07.115Z,100669.25
2023-01-12T07:34:34.272Z,100666.28
2023-01-12T07:37:01.364Z,100662.78
2023-01-12T07:39:28.355Z,100668.59
2023-01-12T07:42:14.090Z,100668.53
2023-01-12T07:44:42.137Z,100666.19
2023-01-12T07:47:09.074Z,100663.53
2023-01-12T07:49:36.097Z,100663.13
2023-01-12T07:52:03.229Z,100650.88
2023-01-12T07:54:30.794Z,100659.56
2023-01-12T07:56:59.011Z,100654.16
2023-01-12T07:59:27.392Z,100659.88
2023-01-12T08:01:57.396Z,100669.41
2023-01-12T08:04:24.453Z,100658.16
2023-01-12T08:06:51.477Z,100650.19
2023-01-12T08:09:18.468Z,100655.16
2023-01-12T08:11:45.521Z,100643.88
2023-01-12T08:14:26.265Z,100641.03
2023-01-12T08:16:56.560Z,100635.44
2023-01-12T08:19:31.257Z,100631.25
2023-01-12T08:22:01.261Z,100637.72
2023-01-12T08:24:43.635Z,100634.84
2023-01-12T08:27:11.153Z,100635.34
2023-01-12T08:29:45.870Z,100637.16
2023-01-12T08:32:18.084Z,100647.69
2023-01-12T08:34:52.181Z,100635.66
2023-01-12T08:37:22.515Z,100635.16
2023-01-12T08:39:50.633Z,100629.19
2023-01-12T08:42:18.851Z,100636.34
2023-01-12T08:44:46.426Z,100618.31
2023-01-12T08:47:27.237Z,100630.91
2023-01-12T08:49:54.994Z,100628.25
2023-01-12T08:52:22.254Z,100627.13
2023-01-12T08:54:50.095Z,100624.81
2023-01-12T08:57:19.258Z,100607.44
2023-01-12T08:59:46.493Z,100628.47
2023-01-12T09:02:15.502Z,100619.38
2023-01-12T09:04:42.692Z,100611.47
2023-01-12T09:07:11.107Z,100607.53
2023-01-12T09:09:38.967Z,100591.41
2023-01-12T09:12:07.108Z,100590.84
2023-01-12T09:14:39.083Z,100606.84
2023-01-12T09:17:07.439Z,100604.44
2023-01-12T09:19:34.777Z,100592.53
2023-01-12T09:22:01.765Z,100604.84
2023-01-12T09:24:28.861Z,100598.25
2023-01-12T09:26:55.821Z,100595.53
2023-01-12T09:29:22.911Z,100587.75
2023-01-12T09:31:50.272Z,100593.84
2023-01-12T09:34:17.369Z,100583.31
2023-01-12T09:36:45.008Z,100580.56
2023-01-12T09:39:27.394Z,100582.78
2023-01-12T09:42:14.618Z,100580.22
2023-01-12T09:45:02.835Z,100577.47
2023-01-12T09:47:50.069Z,100576.25
2023-01-12T09:50:35.039Z,100577.59
2023-01-12T09:53:07.442Z,100573.72
2023-01-12T09:55:51.941Z,100571.22
2023-01-12T09:58:24.671Z,100578.50
2023-01-12T10:00:56.635Z,100569.31
2023-01-12T10:03:35.770Z,100568.59
2023-01-12T10:06:02.957Z,100563.81
2023-01-12T10:08:51.366Z,100556.56
2023-01-12T10:11:49.136Z,100554.22
2023-01-12T10:14:28.054Z,100547.00
2023-01-12T10:17:10.129Z,100553.75
2023-01-12T10:20:04.554Z,100551.25
2023-01-12T10:22:39.763Z,100539.78
2023-01-12T10:25:37.364Z,100543.06
2023-01-12T10:28:24.369Z,100548.38
2023-01-12T10:30:55.990Z,100548.00
2023-01-12T10:33:29.672Z,100540.03
2023-01-12T10:36:09.903Z,100553.47
2023-01-12T10:38:39.327Z,100533.63
2023-01-12T10:41:19.547Z,100535.91
2023-01-12T10:43:59.064Z,100530.53
2023-01-12T10:46:34.397Z,100520.41
2023-01-12T10:49:21.964Z,100531.84
2023-01-12T10:52:02.249Z,100518.88
2023-01-12T10:54:31.927Z,100508.13
2023-01-12T10:57:16.868Z,100513.13
2023-01-12T10:59:51.727Z,100511.66
2023-01-12T11:02:19.093Z,100512.78
2023-01-12T11:04:52.688Z,100501.75
2023-01-12T11:07:22.913Z,100508.53
2023-01-12T11:09:50.071Z,100492.22
2023-01-12T11:12:40.441Z,100498.72
2023-01-12T11:15:10.433Z,100490.19
2023-01-12T11:18:02.189Z,100484.41
2023-01-12T11:20:46.063Z,100481.56
2023-01-12T11:23:42.148Z,100490.13
2023-01-12T11:26:19.097Z,100493.66
2023-01-12T11:28:50.179Z,100500.88
2023-01-12T11:31:26.024Z,100485.31
2023-01-12T11:34:01.707Z,100487.59
2023-01-12T11:36:40.122Z,100488.84
2023-01-12T11:39:14.864Z,100482.00
2023-01-12T11:42:19.292Z,100475.50
2023-01-12T11:45:03.264Z,100480.03
2023-01-12T11:47:43.341Z,100483.38
2023-01-12T11:50:24.909Z,100476.38
2023-01-12T11:52:53.440Z,100478.81
2023-01-12T11:55:59.403Z,100470.84
2023-01-12T11:58:35.128Z,100466.06
2023-01-12T12:01:09.758Z,100464.06
2023-01-12T12:03:46.544Z,100473.16
2023-01-12T12:06:39.689Z,100470.22
2023-01-12T12:09:22.447Z,100460.66
2023-01-12T12:11:58.465Z,100462.75
2023-01-12T12:14:37.489Z,100464.09
2023-01-12T12:17:10.185Z,100464.34
2023-01-12T12:19:58.398Z,100450.84
2023-01-12T12:22:44.116Z,100452.13
2023-01-12T12:25:29.329Z,100453.19
2023-01-12T12:28:01.430Z,100471.69
2023-01-12T12:30:47.403Z,100454.41
2023-01-12T12:33:45.032Z,100447.69
2023-01-12T12:36:38.528Z,100446.66
2023-01-12T12:39:25.889Z,100449.72
2023-01-12T12:42:30.492Z,100453.44
2023-01-12T12:45:28.314Z,100449.63
2023-01-12T12:48:02.209Z,100452.94
2023-01-12T12:50:40.074Z,100470.59
2023-01-12T12:53:28.516Z,100456.56
2023-01-12T12:55:59.206Z,100449.94
2023-01-12T12:58:29.443Z,100448.22
2023-01-12T13:01:25.594Z,100443.97
2023-01-12T13:04:01.310Z,100437.94
2023-01-12T13:06:36.666Z,100443.03
2023-01-12T13:09:25.285Z,100447.63
2023-01-12T13:12:17.701Z,100442.06
2023-01-12T13:15:25.707Z,100448.00
2023-01-12T13:17:54.760Z,100439.69
2023-01-12T13:20:36.074Z,100439.66
2023-01-12T13:23:03.136Z,100442.25
2023-01-12T13:25:30.367Z,100435.91
2023-01-12T13:28:00.759Z,100431.41
2023-01-12T13:30:30.917Z,100434.59
2023-01-12T13:33:00.009Z,100429.88
2023-01-12T13:35:35.781Z,100434.88
2023-01-12T13:38:21.000Z,100431.88
2023-01-12T13:40:55.452Z,100417.22
2023-01-12T13:43:31.363Z,100427.50
2023-01-12T13:46:03.711Z,100427.50
2023-01-12T13:48:33.829Z,100426.06
2023-01-12T13:51:26.673Z,100416.28
2023-01-12T13:54:20.731Z,100409.19
2023-01-12T13:56:55.441Z,100423.88
2023-01-12T13:59:22.748Z,100429.50
2023-01-12T14:01:49.961Z,100412.88
2023-01-12T14:04:21.651Z,100419.81
2023-01-12T14:07:14.269Z,100400.00
2023-01-12T14:10:11.203Z,100412.44
2023-01-12T14:13:12.370Z,100397.22
2023-01-12T14:15:59.386Z,100392.03
2023-01-12T14:18:44.647Z,100388.13
2023-01-12T14:21:31.852Z,100383.91
2023-01-12T14:24:22.184Z,100391.63
2023-01-12T14:26:49.521Z,100401.25
2023-01-12T14:29:16.822Z,100402.53
2023-01-12T14:31:55.847Z,100404.19
2023-01-12T14:34:35.091Z,100385.28
2023-01-12T14:37:05.818Z,100399.28
2023-01-12T14:39:41.334Z,100390.72
2023-01-12T14:42:37.849Z,100391.38
2023-01-12T14:45:38.460Z,100406.91
2023-01-12T14:48:31.214Z,100387.63
2023-01-12T14:51:00.772Z,100401.13
2023-01-12T14:53:42.040Z,100396.81
2023-01-12T14:56:21.401Z,100393.25
2023-01-12T14:58:49.012Z,100383.06
2023-01-12T15:01:37.467Z,100368.53
2023-01-12T15:04:06.845Z,100366.81
2023-01-12T15:06:44.249Z,100374.50
2023-01-12T15:09:30.837Z,100367.72
2023-01-12T15:11:58.165Z,100373.06
2023-01-12T15:14:29.158Z,100373.84
2023-01-12T15:17:15.587Z,100362.97
2023-01-12T15:20:01.400Z,100364.72
2023-01-12T15:22:47.343Z,100375.00
2023-01-12T15:25:36.209Z,100375.53
2023-01-12T15:28:05.655Z,100378.47
2023-01-12T15:30:36.740Z,100370.59
2023-01-12T15:33:04.800Z,100375.97
2023-01-12T15:35:32.756Z,100372.84
2023-01-12T15:38:00.118Z,100366.38
2023-01-12T15:40:28.485Z,100373.38
2023-01-12T15:42:58.801Z,100373.97
2023-01-12T15:45:42.706Z,100381.75
2023-01-12T15:48:10.700Z,100378.59
2023-01-12T15:50:41.097Z,100379.44
2023-01-12T15:53:19.525Z,100373.00
2023-01-12T15:55:47.592Z,100363.91
2023-01-12T15:58:17.270Z,100371.56
2023-01-12T16:00:45.477Z,100365.00
2023-01-12T16:03:28.989Z,100364.31
2023-01-12T16:06:00.491Z,100364.00
2023-01-12T16:08:27.721Z,100357.66
2023-01-12T16:11:11.781Z,100361.28
2023-01-12T16:13:44.180Z,100360.00
2023-01-12T16:16:16.537Z,100362.63
2023-01-12T16:18:44.514Z,100360.00
2023-01-12T16:21:17.587Z,100351.69
2023-01-12T16:23:45.152Z,100348.31
2023-01-12T16:26:12.491Z,100362.50
2023-01-12T16:28:39.600Z,100365.13
2023-01-12T16:31:10.167Z,100367.00
2023-01-12T16:33:37.730Z,100366.66
2023-01-12T16:36:05.534Z,100355.84
2023-01-12T16:38:32.856Z,100348.00
2023-01-12T16:41:06.930Z,100350.22
2023-01-12T16:43:34.342Z,100347.78
2023-01-12T16:46:03.583Z,100362.38
2023-01-12T16:48:32.939Z,100353.63
2023-01-12T16:51:00.474Z,100355.44
2023-01-12T16:53:29.163Z,100335.97
2023-01-12T16:55:56.409Z,100337.25
2023-01-12T16:58:23.704Z,100324.47
2023-01-12T17:00:50.997Z,100330.19
2023-01-12T17:03:18.196Z,100330.16
2023-01-12T17:05:45.465Z,100325.16
2023-01-12T17:08:12.640Z,100323.69
2023-01-12T17:10:39.702Z,100313.66
2023-01-12T17:13:06.956Z,100325.50
2023-01-12T17:15:35.066Z,100314.41
2023-01-12T17:18:02.583Z,100320.88
2023-01-12T17:20:29.942Z,100325.59
2023-01-12T17:22:58.237Z,100323.28
2023-01-12T17:25:26.374Z,100328.09
2023-01-12T17:27:53.701Z,100308.59
2023-01-12T17:30:22.628Z,100312.84
2023-01-12T17:32:50.033Z,100300.47
2023-01-12T17:35:17.183Z,100305.94
2023-01-12T17:37:44.313Z,100316.38
2023-01-12T17:40:11.927Z,100323.44
2023-01-12T17:42:58.388Z,100325.84
2023-01-12T17:45:25.634Z,100325.41
2023-01-12T17:47:53.366Z,100321.78
2023-01-12T17:50:20.804Z,100315.72
2023-01-12T17:52:47.846Z,100308.31
2023-01-12T17:55:15.296Z,100326.41
2023-01-12T17:57:42.412Z,100312.28
2023-01-12T18:00:15.606Z,100321.75
2023-01-12T18:02:43.846Z,100329.22
2023-01-12T18:05:10.988Z,100311.50
2023-01-12T18:07:38.664Z,100309.47
2023-01-12T18:10:08.012Z,100309.59
2023-01-12T18:12:35.393Z,100316.00
2023-01-12T18:15:02.365Z,100309.59
2023-01-12T18:17:31.798Z,100305.47
2023-01-12T18:19:59.183Z,100318.13
2023-01-12T18:22:26.474Z,100312.75
2023-01-12T18:24:53.726Z,100318.69
2023-01-12T18:27:20.835Z,100318.03
2023-01-12T18:29:51.805Z,100323.22
2023-01-12T18:32:19.072Z,100315.69
2023-01-12T18:34:49.079Z,100323.28
2023-01-12T18:37:16.948Z,100326.41
2023-01-12T18:39:44.414Z,100319.31
2023-01-12T18:42:30.375Z,100302.53
2023-01-12T18:44:59.698Z,100305.22
2023-01-12T18:47:45.457Z,100309.44
2023-01-12T18:50:31.631Z,100302.06
2023-01-12T18:53:18.010Z,100303.78
2023-01-12T18:55:46.083Z,100309.88
2023-01-12T18:58:13.337Z,100323.41
2023-01-12T19:00:40.633Z,100320.25
2023-01-12T19:03:08.413Z,100327.81
2023-01-12T19:05:44.795Z,100315.72
2023-01-12T19:08:30.888Z,100316.78
2023-01-12T19:11:08.886Z,100317.06
2023-01-12T19:13:54.597Z,100312.50
2023-01-12T19:16:40.370Z,100313.25
2023-01-12T19:19:08.322Z,100314.97
2023-01-12T19:21:54.516Z,100305.00
2023-01-12T19:24:40.637Z,100307.28
2023-01-12T19:27:30.943Z,100312.50
2023-01-12T19:30:01.884Z,100314.19
2023-01-12T19:32:31.996Z,100306.19
2023-01-12T19:35:10.146Z,100315.69
2023-01-12T19:37:46.415Z,100299.91
2023-01-12T19:40:43.633Z,100298.16
2023-01-12T19:43:24.856Z,100310.59
2023-01-12T19:45:54.876Z,100316.94
2023-01-12T19:48:27.910Z,100324.06
2023-01-12T19:51:00.233Z,100328.59
2023-01-12T19:53:27.929Z,100331.47
2023-01-12T19:55:55.107Z,100335.59
2023-01-12T19:58:22.336Z,100328.47
2023-01-12T20:00:54.864Z,100313.97
2023-01-12T20:03:23.980Z,100312.97
2023-01-12T20:05:52.365Z,100309.38
2023-01-12T20:08:22.416Z,100316.94
2023-01-12T20:10:57.780Z,100314.13
2023-01-12T20:13:25.705Z,100313.25
2023-01-12T20:15:54.431Z,100301.25
2023-01-12T20:18:21.541Z,100303.31
2023-01-12T20:20:48.611Z,100309.09
2023-01-12T20:23:16.095Z,100313.47
2023-01-12T20:25:44.885Z,100318.13
2023-01-12T20:28:13.922Z,100318.97
2023-01-12T20:30:42.455Z,100312.53
2023-01-12T20:33:10.287Z,100313.22
2023-01-12T20:35:41.212Z,100299.84
2023-01-12T20:38:13.486Z,100306.31
2023-01-12T20:40:40.576Z,100307.81
2023-01-12T20:43:07.684Z,100296.25
2023-01-12T20:45:35.925Z,100297.03
2023-01-12T20:48:02.989Z,100292.78
2023-01-12T20:50:30.247Z,100291.50
2023-01-12T20:52:57.422Z,100298.44
2023-01-12T20:55:24.425Z,100290.66
2023-01-12T20:57:57.699Z,100294.06
2023-01-12T21:00:24.760Z,100286.97
2023-01-12T21:02:55.359Z,100306.25
2023-01-12T21:05:22.515Z,100301.19
2023-01-12T21:07:52.046Z,100307.72
2023-01-12T21:10:21.313Z,100308.28
2023-01-12T21:12:48.356Z,100314.81
2023-01-12T21:15:15.777Z,100308.63
2023-01-12T21:17:42.858Z,100306.56
2023-01-12T21:20:10.668Z,100315.66
2023-01-12T21:22:38.488Z,100315.50
2023-01-12T21:25:05.783Z,100313.97
2023-01-12T21:27:34.114Z,100308.28
2023-01-12T21:30:01.140Z,100299.81
2023-01-12T21:32:30.459Z,100307.03
2023-01-12T21:34:57.560Z,100305.25
2023-01-12T21:37:24.843Z,100301.59
2023-01-12T21:39:51.936Z,100301.19
2023-01-12T21:42:37.391Z,100305.88
2023-01-12T21:45:05.250Z,100305.09
2023-01-12T21:47:32.594Z,100303.06
2023-01-12T21:49:59.657Z,100300.66
2023-01-12T21:52:33.019Z,100300.38
2023-01-12T21:55:00.209Z,100297.69
2023-01-12T21:57:27.334Z,100291.88
2023-01-12T21:59:54.611Z,100286.63
2023-01-12T22:02:23.860Z,100295.03
2023-01-12T22:04:51.500Z,100298.88
2023-01-12T22:07:19.102Z,100277.63
2023-01-12T22:09:46.295Z,100296.41
2023-01-12T22:12:13.616Z,100280.41
2023-01-12T22:14:40.719Z,100284.03
2023-01-12T22:17:07.957Z,100289.81
2023-01-12T22:19:34.972Z,100283.44
2023-01-12T22:22:14.138Z,100287.22
2023-01-12T22:24:57.137Z,100284.53
2023-01-12T22:27:26.595Z,100283.69
2023-01-12T22:29:53.878Z,100287.38
2023-01-12T22:32:20.911Z,100275.00
2023-01-12T22:34:48.050Z,100280.97
2023-01-12T22:37:15.164Z,100291.13
2023-01-12T22:39:42.294Z,100286.03
2023-01-12T22:42:09.462Z,100287.56
2023-01-12T22:44:36.555Z,100282.19
2023-01-12T22:47:03.992Z,100278.25
2023-01-12T22:49:31.048Z,100282.84
2023-01-12T22:51:58.015Z,100277.81
2023-01-12T22:54:25.109Z,100272.31
2023-01-12T22:56:52.098Z,100270.22
2023-01-12T22:59:19.333Z,100282.00
2023-01-12T23:01:46.401Z,100276.72
2023-01-12T23:04:14.005Z,100286.88
2023-01-12T23:06:41.986Z,100280.09
2023-01-12T23:09:11.739Z,100283.72
2023-01-12T23:11:38.879Z,100279.88
2023-01-12T23:14:06.089Z,100273.72
2023-01-12T23:16:33.775Z,100284.47
2023-01-12T23:19:00.896Z,100280.03
2023-01-12T23:21:29.154Z,100282.78
2023-01-12T23:23:58.902Z,100277.41
2023-01-12T23:26:28.592Z,100267.09
2023-01-12T23:28:59.453Z,100272.56
2023-01-12T23:31:29.615Z,100243.41
2023-01-12T23:34:00.168Z,100245.78
2023-01-12T23:36:29.184Z,100249.09
2023-01-12T23:39:00.738Z,100249.28
2023-01-12T23:41:29.425Z,100243.84
2023-01-12T23:43:58.488Z,100252.25
2023-01-12T23:46:26.040Z,100261.53
2023-01-12T23:48:55.137Z,100253.09
2023-01-12T23:51:24.105Z,100262.47
2023-01-12T23:54:01.627Z,100246.00
2023-01-12T23:56:31.410Z,100250.03
2023-01-12T23:58:58.655Z,100233.25
